Time;durP1;ratioP1;P1;durP2;ratioP2;P2;SDS_P1;SDS_P2;PMS_P1;PMS_P2;Temp;Humidity;BMP_temperature;BMP_pressure;BME280_temperature;BME280_humidity;BME280_pressure;Samples;Min_cycle;Max_cycle;Signal;HPM_P1;HPM_P2
2022/07/31 00:01:14;;;;;;;4.90;2.20;;;;;;;;;;5054701;28;20664;-77
2022/07/31 00:03:41;;;;;;;2.10;1.80;;;;;;;;;;5071707;28;20186;-77
2022/07/31 00:06:08;;;;;;;7.03;2.20;;;;;;;;;;5071664;28;20198;-77
2022/07/31 00:08:35;;;;;;;3.83;1.80;;;;;;;;;;5071583;28;20292;-77
2022/07/31 00:11:21;;;;;;;2.33;1.60;;;;;;;;;;5056429;28;20166;-78
2022/07/31 00:13:50;;;;;;;3.07;1.70;;;;;;;;;;5071831;28;20269;-78
2022/07/31 00:16:24;;;;;;;4.13;1.90;;;;;;;;;;5053395;28;20216;-77
2022/07/31 00:18:51;;;;;;;2.87;1.70;;;;;;;;;;5071537;28;20329;-78
2022/07/31 00:21:18;;;;;;;3.50;1.80;;;;;;;;;;5053437;28;20174;-77
2022/07/31 00:23:45;;;;;;;3.83;1.90;;;;;;;;;;5071250;28;20184;-78
2022/07/31 00:26:12;;;;;;;3.30;1.50;;;;;;;;;;5082110;28;20174;-77
2022/07/31 00:28:39;;;;;;;2.87;1.50;;;;;;;;;;5056867;28;20188;-77
2022/07/31 00:31:06;;;;;;;3.67;1.43;;;;;;;;;;5091191;28;20201;-77
2022/07/31 00:33:33;;;;;;;2.67;1.50;;;;;;;;;;5073215;28;20284;-78
2022/07/31 00:36:18;;;;;;;5.63;1.50;;;;;;;;;;5073130;28;20643;-78
2022/07/31 00:38:44;;;;;;;2.90;1.20;;;;;;;;;;5056511;28;20189;-78
2022/07/31 00:41:39;;;;;;;1.93;1.20;;;;;;;;;;5076145;28;20414;-77
2022/07/31 00:44:06;;;;;;;2.67;1.50;;;;;;;;;;5056571;28;20213;-77
2022/07/31 00:46:52;;;;;;;2.97;1.50;;;;;;;;;;5091359;28;20177;-78
2022/07/31 00:49:40;;;;;;;3.93;1.37;;;;;;;;;;5072862;28;20186;-78
2022/07/31 00:52:15;;;;;;;1.90;1.47;;;;;;;;;;5090896;28;20192;-77
2022/07/31 00:54:42;;;;;;;1.97;1.20;;;;;;;;;;5091057;28;20590;-77
2022/07/31 00:57:10;;;;;;;1.70;1.20;;;;;;;;;;5090681;28;20719;-78
2022/07/31 00:59:37;;;;;;;3.53;1.13;;;;;;;;;;5090856;28;20200;-78
2022/07/31 01:02:04;;;;;;;2.50;1.30;;;;;;;;;;5072848;28;20255;-77
2022/07/31 01:04:30;;;;;;;3.93;1.33;;;;;;;;;;5072693;28;20209;-78
2022/07/31 01:06:59;;;;;;;2.80;1.20;;;;;;;;;;5090558;28;20185;-77
2022/07/31 01:09:27;;;;;;;4.90;1.87;;;;;;;;;;5090763;28;20197;-78
2022/07/31 01:11:59;;;;;;;2.63;1.30;;;;;;;;;;5056381;28;20276;-77
2022/07/31 01:14:29;;;;;;;2.20;1.67;;;;;;;;;;5090826;28;20200;-77
2022/07/31 01:16:56;;;;;;;3.10;1.30;;;;;;;;;;5090614;28;20222;-78
2022/07/31 01:19:24;;;;;;;1.73;1.50;;;;;;;;;;5072940;28;20197;-78
2022/07/31 01:22:10;;;;;;;1.60;1.10;;;;;;;;;;5092110;28;20193;-77
2022/07/31 01:25:16;;;;;;;4.33;1.60;;;;;;;;;;5072097;28;20615;-77
2022/07/31 01:28:22;;;;;;;1.60;1.20;;;;;;;;;;5075019;28;20586;-77
2022/07/31 01:30:52;;;;;;;4.57;1.60;;;;;;;;;;5090377;28;20264;-78
2022/07/31 01:33:42;;;;;;;2.40;1.20;;;;;;;;;;5071936;28;20697;-77
2022/07/31 01:36:10;;;;;;;3.47;1.40;;;;;;;;;;5072467;28;20239;-77
2022/07/31 01:38:38;;;;;;;5.03;1.43;;;;;;;;;;5072381;28;20182;-78
2022/07/31 01:41:11;;;;;;;2.33;1.20;;;;;;;;;;5105982;28;20193;-78
2022/07/31 01:43:39;;;;;;;4.43;1.47;;;;;;;;;;5089645;28;20599;-78
2022/07/31 01:46:06;;;;;;;3.70;1.47;;;;;;;;;;5105608;28;20692;-77
2022/07/31 01:48:33;;;;;;;3.10;1.50;;;;;;;;;;5072074;28;20189;-78
2022/07/31 01:51:01;;;;;;;2.40;1.60;;;;;;;;;;5055469;28;20675;-78
2022/07/31 01:53:30;;;;;;;3.43;1.80;;;;;;;;;;5055575;28;20660;-78
2022/07/31 01:56:00;;;;;;;2.90;1.70;;;;;;;;;;5055091;28;20217;-78
2022/07/31 01:58:34;;;;;;;3.60;1.63;;;;;;;;;;5089590;28;20207;-78
2022/07/31 02:01:07;;;;;;;2.67;1.60;;;;;;;;;;5089331;28;20288;-78
2022/07/31 02:03:39;;;;;;;3.67;1.80;;;;;;;;;;5071766;28;20669;-78
2022/07/31 02:06:13;;;;;;;3.50;1.77;;;;;;;;;;5056268;28;20221;-78
2022/07/31 02:08:42;;;;;;;4.30;1.90;;;;;;;;;;5038846;28;20717;-78
2022/07/31 02:11:12;;;;;;;3.50;1.50;;;;;;;;;;5055755;28;20216;-78
2022/07/31 02:13:40;;;;;;;4.53;1.53;;;;;;;;;;5071925;28;20197;-78
2022/07/31 02:16:07;;;;;;;2.00;1.27;;;;;;;;;;5089700;28;20191;-77
2022/07/31 02:18:36;;;;;;;3.73;1.57;;;;;;;;;;5089740;28;20199;-77
2022/07/31 02:21:28;;;;;;;7.43;1.73;;;;;;;;;;5071570;28;20236;-78
2022/07/31 02:24:13;;;;;;;11.47;2.33;;;;;;;;;;5089923;28;20578;-78
2022/07/31 02:26:40;;;;;;;9.83;2.20;;;;;;;;;;5040487;28;20178;-79
2022/07/31 02:29:07;;;;;;;6.53;1.87;;;;;;;;;;5035073;28;20204;-78
2022/07/31 02:31:47;;;;;;;5.93;1.80;;;;;;;;;;5036735;28;20285;-77
2022/07/31 02:34:32;;;;;;;5.70;2.10;;;;;;;;;;5054420;28;20169;-78
2022/07/31 02:36:59;;;;;;;4.47;1.80;;;;;;;;;;5034587;28;20247;-78
2022/07/31 02:39:26;;;;;;;2.80;1.40;;;;;;;;;;5051418;28;20191;-78
2022/07/31 02:41:59;;;;;;;2.80;1.50;;;;;;;;;;5035125;28;20564;-78
2022/07/31 02:44:33;;;;;;;4.97;1.57;;;;;;;;;;5069352;28;20217;-78
2022/07/31 02:47:01;;;;;;;3.00;1.50;;;;;;;;;;5051431;28;20241;-78
2022/07/31 02:49:29;;;;;;;4.67;1.50;;;;;;;;;;5035340;28;20664;-78
2022/07/31 02:51:56;;;;;;;4.73;1.40;;;;;;;;;;5034840;28;20201;-77
2022/07/31 02:54:25;;;;;;;2.40;1.40;;;;;;;;;;5051891;28;20277;-77
2022/07/31 02:56:52;;;;;;;1.60;1.40;;;;;;;;;;5041658;28;20310;-77
2022/07/31 02:59:20;;;;;;;3.60;1.40;;;;;;;;;;5015749;28;20195;-77
2022/07/31 03:01:58;;;;;;;3.07;1.67;;;;;;;;;;5033146;28;20261;-78
2022/07/31 03:04:28;;;;;;;1.97;1.40;;;;;;;;;;5031984;28;20231;-77
2022/07/31 03:06:55;;;;;;;5.17;1.80;;;;;;;;;;5033168;28;20191;-77
2022/07/31 03:09:23;;;;;;;8.33;1.90;;;;;;;;;;5032042;28;20233;-78
2022/07/31 03:12:05;;;;;;;10.23;1.80;;;;;;;;;;5031819;28;20230;-78
2022/07/31 03:14:33;;;;;;;4.17;1.87;;;;;;;;;;5015825;28;20199;-78
2022/07/31 03:17:18;;;;;;;4.37;1.33;;;;;;;;;;5017743;28;20176;-77
2022/07/31 03:19:46;;;;;;;4.17;1.50;;;;;;;;;;5015511;28;20190;-78
2022/07/31 03:22:13;;;;;;;2.50;1.50;;;;;;;;;;5015628;28;20206;-77
2022/07/31 03:24:42;;;;;;;5.20;1.70;;;;;;;;;;5031484;28;20210;-79
2022/07/31 03:27:09;;;;;;;2.53;1.40;;;;;;;;;;5015519;28;20196;-78
2022/07/31 03:29:37;;;;;;;3.93;1.53;;;;;;;;;;5031564;28;20198;-78
2022/07/31 03:32:10;;;;;;;4.07;2.03;;;;;;;;;;5016387;28;20206;-78
2022/07/31 03:34:37;;;;;;;3.10;1.40;;;;;;;;;;5032434;28;20188;-76
2022/07/31 03:37:05;;;;;;;5.10;1.70;;;;;;;;;;5015413;28;20199;-78
2022/07/31 03:39:32;;;;;;;4.27;1.40;;;;;;;;;;5015103;28;20191;-77
2022/07/31 03:42:04;;;;;;;5.93;1.70;;;;;;;;;;5031455;28;20349;-77
2022/07/31 03:44:45;;;;;;;4.43;1.87;;;;;;;;;;5016550;28;20219;-77
2022/07/31 03:47:12;;;;;;;3.40;1.63;;;;;;;;;;5015254;28;20223;-77
2022/07/31 03:49:42;;;;;;;2.10;1.33;;;;;;;;;;5031208;28;20290;-77
2022/07/31 03:52:10;;;;;;;4.83;1.43;;;;;;;;;;5031251;28;20590;-78
2022/07/31 03:54:39;;;;;;;4.33;1.40;;;;;;;;;;5030906;28;20215;-78
2022/07/31 03:57:23;;;;;;;2.37;1.20;;;;;;;;;;5030972;28;20574;-78
2022/07/31 03:59:59;;;;;;;3.47;1.40;;;;;;;;;;5030637;28;20199;-78
2022/07/31 04:02:27;;;;;;;1.93;1.40;;;;;;;;;;5014850;28;20188;-77
2022/07/31 04:05:33;;;;;;;2.97;1.27;;;;;;;;;;5030579;28;20211;-77
2022/07/31 04:08:00;;;;;;;6.40;1.30;;;;;;;;;;5014350;28;20476;-78
2022/07/31 04:10:28;;;;;;;2.97;1.23;;;;;;;;;;5030632;28;20192;-78
2022/07/31 04:12:57;;;;;;;3.20;1.67;;;;;;;;;;5030556;28;20219;-78
2022/07/31 04:15:25;;;;;;;2.03;1.27;;;;;;;;;;4998617;28;20199;-78
2022/07/31 04:17:52;;;;;;;2.83;1.30;;;;;;;;;;5014296;28;20207;-78
2022/07/31 04:20:26;;;;;;;3.17;1.20;;;;;;;;;;5015087;28;20686;-78
2022/07/31 04:22:54;;;;;;;5.60;1.40;;;;;;;;;;5031636;28;20663;-78
2022/07/31 04:25:41;;;;;;;3.93;1.40;;;;;;;;;;5026615;28;20213;-77
2022/07/31 04:28:45;;;;;;;6.53;1.90;;;;;;;;;;5050610;28;20312;-78
2022/07/31 04:31:13;;;;;;;2.23;1.50;;;;;;;;;;5051522;28;20191;-78
2022/07/31 04:33:44;;;;;;;3.47;1.33;;;;;;;;;;5033933;28;20198;-78
2022/07/31 04:36:33;;;;;;;5.87;1.80;;;;;;;;;;5050381;28;20554;-77
2022/07/31 04:39:00;;;;;;;3.93;1.23;;;;;;;;;;5051202;28;20197;-77
2022/07/31 04:41:28;;;;;;;2.13;1.10;;;;;;;;;;5017344;28;20195;-78
2022/07/31 04:43:58;;;;;;;3.73;1.23;;;;;;;;;;5051135;28;20202;-78
2022/07/31 04:46:29;;;;;;;4.33;1.60;;;;;;;;;;5049766;28;20218;-77
2022/07/31 04:48:57;;;;;;;5.43;1.43;;;;;;;;;;5033143;28;20720;-78
2022/07/31 04:51:26;;;;;;;4.83;1.60;;;;;;;;;;5033939;28;20530;-78
2022/07/31 04:53:54;;;;;;;6.57;1.67;;;;;;;;;;5049540;28;20206;-78
2022/07/31 04:56:40;;;;;;;4.33;1.33;;;;;;;;;;5033483;28;20238;-78
2022/07/31 04:59:08;;;;;;;5.80;1.40;;;;;;;;;;5051179;28;20191;-77
2022/07/31 05:01:39;;;;;;;1.47;1.10;;;;;;;;;;5049218;28;20198;-77
2022/07/31 05:04:12;;;;;;;1.47;1.03;;;;;;;;;;5048541;28;20198;-78
2022/07/31 05:06:58;;;;;;;1.27;1.00;;;;;;;;;;5049301;28;20214;-78
2022/07/31 05:09:28;;;;;;;6.57;1.40;;;;;;;;;;5032914;28;20187;-78
2022/07/31 05:11:59;;;;;;;4.53;1.40;;;;;;;;;;5049240;28;20198;-77
2022/07/31 05:14:26;;;;;;;3.80;1.27;;;;;;;;;;5049344;28;20185;-77
2022/07/31 05:16:53;;;;;;;3.20;1.30;;;;;;;;;;5049688;28;20573;-77
2022/07/31 05:19:28;;;;;;;2.57;1.10;;;;;;;;;;5032215;28;20270;-77
2022/07/31 05:21:56;;;;;;;8.10;1.50;;;;;;;;;;5050443;28;20661;-77
2022/07/31 05:24:46;;;;;;;5.00;1.33;;;;;;;;;;5049829;28;20198;-77
2022/07/31 05:27:14;;;;;;;2.33;1.20;;;;;;;;;;5030130;28;20658;-77
2022/07/31 05:29:41;;;;;;;5.33;1.80;;;;;;;;;;5029384;28;20195;-78
2022/07/31 05:32:09;;;;;;;6.43;2.10;;;;;;;;;;4997589;28;20200;-78
2022/07/31 05:34:37;;;;;;;6.43;2.00;;;;;;;;;;5028916;28;20241;-78
2022/07/31 05:37:04;;;;;;;7.03;2.00;;;;;;;;;;5029229;28;20204;-77
2022/07/31 05:39:35;;;;;;;4.87;1.50;;;;;;;;;;5030623;28;20187;-77
2022/07/31 05:42:20;;;;;;;5.80;1.50;;;;;;;;;;5030921;28;20293;-77
2022/07/31 05:45:05;;;;;;;3.77;1.33;;;;;;;;;;5030255;28;20198;-78
2022/07/31 05:47:34;;;;;;;2.00;1.33;;;;;;;;;;5028901;28;20206;-77
2022/07/31 05:50:08;;;;;;;1.93;1.10;;;;;;;;;;5029176;28;20286;-78
2022/07/31 05:52:35;;;;;;;2.10;1.13;;;;;;;;;;5012585;28;20206;-78
2022/07/31 05:55:25;;;;;;;4.10;1.33;;;;;;;;;;5029816;28;20290;-77
2022/07/31 05:58:12;;;;;;;4.37;1.40;;;;;;;;;;5018797;28;20260;-77
2022/07/31 06:00:46;;;;;;;2.17;1.07;;;;;;;;;;5048978;28;20224;-77
2022/07/31 06:03:12;;;;;;;2.67;1.20;;;;;;;;;;5050073;28;20201;-78
2022/07/31 06:05:55;;;;;;;2.50;1.10;;;;;;;;;;5034137;28;20268;-77
2022/07/31 06:08:22;;;;;;;2.30;1.00;;;;;;;;;;5049937;28;20729;-77
2022/07/31 06:10:50;;;;;;;2.27;0.90;;;;;;;;;;5048843;28;20194;-78
2022/07/31 06:13:18;;;;;;;2.60;1.13;;;;;;;;;;5049686;28;20240;-77
2022/07/31 06:15:48;;;;;;;6.13;1.70;;;;;;;;;;5048598;28;20190;-78
2022/07/31 06:18:16;;;;;;;1.63;1.10;;;;;;;;;;5031916;28;20207;-78
2022/07/31 06:20:44;;;;;;;1.87;0.90;;;;;;;;;;5049688;28;20195;-77
2022/07/31 06:23:11;;;;;;;3.40;1.00;;;;;;;;;;5048998;28;20182;-76
2022/07/31 06:26:20;;;;;;;2.43;0.90;;;;;;;;;;5048576;28;20218;-76
2022/07/31 06:28:49;;;;;;;4.60;1.20;;;;;;;;;;5049912;28;20191;-77
2022/07/31 06:31:20;;;;;;;1.90;1.20;;;;;;;;;;5035300;28;20190;-77
2022/07/31 06:33:50;;;;;;;2.83;1.00;;;;;;;;;;5052381;28;20226;-77
2022/07/31 06:36:21;;;;;;;2.50;1.07;;;;;;;;;;5036632;28;20199;-77
2022/07/31 06:38:56;;;;;;;3.07;1.10;;;;;;;;;;5053539;28;20220;-77
2022/07/31 06:41:47;;;;;;;2.27;0.90;;;;;;;;;;5052271;28;20193;-77
2022/07/31 06:44:32;;;;;;;2.10;1.07;;;;;;;;;;5053352;28;20191;-76
2022/07/31 06:47:18;;;;;;;1.63;0.80;;;;;;;;;;5053196;28;20545;-76
2022/07/31 06:49:51;;;;;;;2.33;0.80;;;;;;;;;;5052494;28;20186;-77
2022/07/31 06:52:18;;;;;;;3.63;1.10;;;;;;;;;;5051870;28;20237;-77
2022/07/31 06:54:46;;;;;;;3.03;1.00;;;;;;;;;;5053489;28;20190;-77
2022/07/31 06:57:13;;;;;;;4.80;1.30;;;;;;;;;;5076992;28;20256;-76
2022/07/31 06:59:40;;;;;;;1.83;1.10;;;;;;;;;;5075346;28;20197;-77
2022/07/31 07:02:07;;;;;;;4.23;1.30;;;;;;;;;;5075224;28;20224;-77
2022/07/31 07:04:34;;;;;;;1.83;0.90;;;;;;;;;;5058551;28;20212;-77
2022/07/31 07:07:21;;;;;;;2.27;0.90;;;;;;;;;;5061087;28;20308;-78
2022/07/31 07:09:50;;;;;;;2.20;1.03;;;;;;;;;;5075098;28;20284;-78
2022/07/31 07:12:38;;;;;;;3.60;1.07;;;;;;;;;;5074726;28;20304;-77
2022/07/31 07:15:07;;;;;;;5.10;1.00;;;;;;;;;;5074862;28;20239;-78
2022/07/31 07:17:35;;;;;;;3.77;1.10;;;;;;;;;;5092927;28;20273;-77
2022/07/31 07:20:12;;;;;;;1.67;0.80;;;;;;;;;;5059911;28;20209;-76
2022/07/31 07:22:40;;;;;;;2.27;0.77;;;;;;;;;;5075099;28;20200;-77
2022/07/31 07:25:11;;;;;;;1.27;0.80;;;;;;;;;;5072703;28;20606;-77
2022/07/31 07:27:39;;;;;;;2.87;0.90;;;;;;;;;;5054436;28;20221;-77
2022/07/31 07:30:07;;;;;;;2.00;0.63;;;;;;;;;;5038255;28;20182;-77
2022/07/31 07:32:33;;;;;;;2.43;1.00;;;;;;;;;;5054762;28;20534;-77
2022/07/31 07:35:02;;;;;;;2.63;0.70;;;;;;;;;;5072603;28;20604;-77
2022/07/31 07:37:45;;;;;;;2.40;0.80;;;;;;;;;;5054690;28;20263;-77
2022/07/31 07:40:12;;;;;;;0.87;0.63;;;;;;;;;;5054307;28;20206;-77
2022/07/31 07:42:39;;;;;;;1.53;0.90;;;;;;;;;;5037704;28;20193;-78
2022/07/31 07:45:06;;;;;;;1.73;0.70;;;;;;;;;;5054479;28;20673;-77
2022/07/31 07:47:34;;;;;;;3.00;0.70;;;;;;;;;;5054358;28;20657;-78
2022/07/31 07:50:21;;;;;;;1.13;0.70;;;;;;;;;;5040908;28;20194;-78
2022/07/31 07:53:24;;;;;;;1.57;0.87;;;;;;;;;;5054335;28;20210;-77
2022/07/31 07:56:27;;;;;;;1.00;0.73;;;;;;;;;;5072020;28;21411;-78
2022/07/31 07:58:54;;;;;;;1.63;0.60;;;;;;;;;;5072436;28;20488;-77
2022/07/31 08:01:40;;;;;;;1.80;0.70;;;;;;;;;;5057120;28;20200;-78
2022/07/31 08:04:19;;;;;;;0.57;0.53;;;;;;;;;;5054056;28;20202;-78
2022/07/31 08:07:03;;;;;;;2.90;0.73;;;;;;;;;;5039960;28;20202;-78
2022/07/31 08:09:36;;;;;;;0.80;0.57;;;;;;;;;;5038329;28;20198;-78
2022/07/31 08:12:23;;;;;;;1.43;0.80;;;;;;;;;;5071977;28;20205;-78
2022/07/31 08:15:05;;;;;;;1.37;0.70;;;;;;;;;;5071953;28;20285;-78
2022/07/31 08:18:12;;;;;;;2.17;0.80;;;;;;;;;;5060257;28;20162;-78
2022/07/31 08:20:41;;;;;;;2.70;0.70;;;;;;;;;;5038021;28;20206;-77
2022/07/31 08:23:07;;;;;;;2.33;0.77;;;;;;;;;;5054238;28;20190;-77
2022/07/31 08:25:36;;;;;;;3.43;0.80;;;;;;;;;;5053667;28;20699;-78
2022/07/31 08:28:04;;;;;;;1.40;0.60;;;;;;;;;;5021205;28;20251;-77
2022/07/31 08:30:49;;;;;;;3.60;0.70;;;;;;;;;;5039632;28;20175;-78
2022/07/31 08:33:19;;;;;;;2.60;0.60;;;;;;;;;;5037610;28;20511;-77
2022/07/31 08:35:54;;;;;;;2.40;0.70;;;;;;;;;;5038065;28;20205;-78
2022/07/31 08:38:21;;;;;;;2.70;0.60;;;;;;;;;;5037194;28;20562;-78
2022/07/31 08:41:39;;;;;;;4.13;0.77;;;;;;;;;;5043143;28;20215;-77
2022/07/31 08:44:08;;;;;;;2.93;0.80;;;;;;;;;;5037875;28;20194;-78
2022/07/31 08:46:36;;;;;;;1.10;0.70;;;;;;;;;;5053489;28;20210;-78
2022/07/31 08:49:04;;;;;;;2.67;0.70;;;;;;;;;;5036729;28;20285;-78
2022/07/31 08:51:36;;;;;;;1.80;0.70;;;;;;;;;;5071301;28;20182;-78
2022/07/31 08:54:22;;;;;;;0.80;0.57;;;;;;;;;;5056015;28;20193;-78
2022/07/31 08:56:52;;;;;;;2.13;0.70;;;;;;;;;;5025161;28;20650;-78
2022/07/31 08:59:21;;;;;;;2.30;0.60;;;;;;;;;;5029994;28;20222;-77
2022/07/31 09:01:50;;;;;;;1.73;0.77;;;;;;;;;;5029986;28;20310;-78
2022/07/31 09:04:17;;;;;;;0.87;0.60;;;;;;;;;;5029027;28;20203;-78
2022/07/31 09:07:02;;;;;;;2.93;0.80;;;;;;;;;;5015596;28;20261;-77
2022/07/31 09:09:30;;;;;;;1.60;1.03;;;;;;;;;;5013397;28;20215;-77
2022/07/31 09:12:25;;;;;;;1.03;0.80;;;;;;;;;;5030517;28;20171;-77
2022/07/31 09:15:18;;;;;;;2.43;1.00;;;;;;;;;;5029598;28;20682;-77
2022/07/31 09:18:13;;;;;;;1.30;0.87;;;;;;;;;;5029546;28;20176;-78
2022/07/31 09:20:54;;;;;;;3.67;0.90;;;;;;;;;;5030696;28;20671;-78
2022/07/31 09:23:43;;;;;;;2.20;0.70;;;;;;;;;;5029239;28;20176;-77
2022/07/31 09:26:10;;;;;;;1.40;0.60;;;;;;;;;;5040912;28;20207;-77
2022/07/31 09:28:58;;;;;;;2.80;0.70;;;;;;;;;;5035220;28;20178;-77
2022/07/31 09:31:35;;;;;;;2.30;0.80;;;;;;;;;;5032957;28;20280;-77
2022/07/31 09:34:33;;;;;;;1.80;0.70;;;;;;;;;;5049046;28;20179;-77
2022/07/31 09:37:30;;;;;;;1.30;0.53;;;;;;;;;;5049885;28;20191;-78
2022/07/31 09:40:42;;;;;;;5.80;1.40;;;;;;;;;;5050354;28;20198;-78
2022/07/31 09:43:43;;;;;;;0.97;0.63;;;;;;;;;;5050405;28;20202;-78
2022/07/31 09:46:18;;;;;;;2.70;0.73;;;;;;;;;;5033498;28;20296;-78
2022/07/31 09:48:51;;;;;;;1.57;0.77;;;;;;;;;;5032137;28;20230;-77
2022/07/31 09:51:36;;;;;;;1.03;0.70;;;;;;;;;;5033634;28;20198;-77
2022/07/31 09:54:03;;;;;;;3.40;0.70;;;;;;;;;;5032263;28;20719;-77
2022/07/31 09:56:56;;;;;;;1.60;0.90;;;;;;;;;;5059279;28;20248;-77
2022/07/31 09:59:27;;;;;;;1.73;0.70;;;;;;;;;;5072224;28;20200;-78
2022/07/31 10:02:15;;;;;;;1.87;1.00;;;;;;;;;;5090063;28;20668;-78
2022/07/31 10:04:46;;;;;;;3.37;0.80;;;;;;;;;;5071688;28;20307;-77
2022/07/31 10:07:15;;;;;;;2.40;0.73;;;;;;;;;;5071811;28;20245;-78
2022/07/31 10:10:15;;;;;;;2.83;0.70;;;;;;;;;;5105644;28;20338;-77
2022/07/31 10:12:53;;;;;;;3.30;0.80;;;;;;;;;;5090101;28;20170;-77
2022/07/31 10:15:21;;;;;;;2.03;0.60;;;;;;;;;;5071959;28;20193;-76
2022/07/31 10:18:08;;;;;;;1.83;0.90;;;;;;;;;;5074991;28;20567;-77
2022/07/31 10:20:52;;;;;;;1.63;0.70;;;;;;;;;;5074515;28;20201;-77
2022/07/31 10:23:54;;;;;;;1.03;0.50;;;;;;;;;;5007636;28;20218;-76
2022/07/31 10:26:22;;;;;;;0.70;0.60;;;;;;;;;;5031487;28;20216;-76
2022/07/31 10:29:06;;;;;;;2.10;0.80;;;;;;;;;;5052001;28;20193;-77
2022/07/31 10:31:33;;;;;;;1.73;0.60;;;;;;;;;;5051745;28;20202;-77
2022/07/31 10:34:02;;;;;;;0.73;0.70;;;;;;;;;;5035236;28;20212;-77
2022/07/31 10:36:47;;;;;;;4.47;0.87;;;;;;;;;;5069973;28;20197;-77
2022/07/31 10:39:37;;;;;;;1.90;0.80;;;;;;;;;;5053554;28;20201;-77
2022/07/31 10:42:36;;;;;;;1.47;0.70;;;;;;;;;;5069167;28;20194;-78
2022/07/31 10:45:04;;;;;;;1.80;0.70;;;;;;;;;;5051277;28;20653;-77
2022/07/31 10:48:01;;;;;;;2.60;0.80;;;;;;;;;;5038583;28;20248;-76
2022/07/31 10:51:09;;;;;;;0.67;0.67;;;;;;;;;;5066378;28;20273;-76
2022/07/31 10:54:04;;;;;;;2.07;0.60;;;;;;;;;;5067933;28;20574;-77
2022/07/31 10:56:51;;;;;;;1.03;0.70;;;;;;;;;;5068707;28;20324;-76
2022/07/31 10:59:42;;;;;;;1.20;0.57;;;;;;;;;;5037810;28;20194;-76
2022/07/31 11:02:36;;;;;;;0.87;0.60;;;;;;;;;;5066956;28;20250;-77
2022/07/31 11:05:36;;;;;;;2.43;0.70;;;;;;;;;;5014048;28;20202;-77
2022/07/31 11:08:52;;;;;;;1.47;0.80;;;;;;;;;;5057844;28;20243;-77
2022/07/31 11:11:38;;;;;;;3.77;0.80;;;;;;;;;;5069667;28;20205;-77
2022/07/31 11:14:39;;;;;;;2.00;0.60;;;;;;;;;;5039099;28;20672;-76
2022/07/31 11:17:32;;;;;;;2.40;0.60;;;;;;;;;;5056952;28;20729;-76
2022/07/31 11:20:25;;;;;;;3.60;0.93;;;;;;;;;;5073002;28;20650;-77
2022/07/31 11:23:04;;;;;;;1.43;0.77;;;;;;;;;;5055057;28;20596;-76
2022/07/31 11:25:33;;;;;;;3.37;0.80;;;;;;;;;;5055440;28;20197;-77
2022/07/31 11:28:11;;;;;;;1.73;0.70;;;;;;;;;;5055183;28;20220;-77
2022/07/31 11:30:58;;;;;;;2.70;0.80;;;;;;;;;;5072443;28;20187;-77
2022/07/31 11:33:32;;;;;;;2.50;0.63;;;;;;;;;;5072471;28;20273;-77
2022/07/31 11:36:18;;;;;;;1.97;0.70;;;;;;;;;;5040310;28;20541;-76
2022/07/31 11:38:45;;;;;;;1.67;0.77;;;;;;;;;;5055016;28;20181;-77
2022/07/31 11:41:14;;;;;;;3.53;0.90;;;;;;;;;;5039078;28;20182;-77
2022/07/31 11:43:42;;;;;;;1.63;0.70;;;;;;;;;;5054657;28;20653;-77
2022/07/31 11:46:09;;;;;;;2.20;0.80;;;;;;;;;;5054888;28;20182;-77
2022/07/31 11:48:37;;;;;;;1.87;0.80;;;;;;;;;;5037828;28;20268;-76
2022/07/31 11:51:15;;;;;;;1.30;0.80;;;;;;;;;;5055779;28;20270;-76
2022/07/31 11:53:42;;;;;;;1.47;0.70;;;;;;;;;;5072258;28;20653;-76
2022/07/31 11:56:10;;;;;;;1.37;0.70;;;;;;;;;;5054846;28;20197;-77
2022/07/31 11:58:40;;;;;;;1.87;0.57;;;;;;;;;;5072252;28;20194;-76
2022/07/31 12:01:28;;;;;;;4.87;0.77;;;;;;;;;;5072335;28;20170;-77
2022/07/31 12:03:55;;;;;;;0.97;0.57;;;;;;;;;;5071912;28;20197;-77
2022/07/31 12:06:39;;;;;;;2.27;0.73;;;;;;;;;;5057131;28;20186;-77
2022/07/31 12:09:07;;;;;;;2.97;0.93;;;;;;;;;;5072086;28;20218;-77
2022/07/31 12:11:52;;;;;;;1.07;0.70;;;;;;;;;;5057010;28;20530;-77
2022/07/31 12:14:35;;;;;;;2.67;0.90;;;;;;;;;;5054263;28;20201;-76
2022/07/31 12:17:03;;;;;;;1.33;0.77;;;;;;;;;;5071958;28;20187;-77
2022/07/31 12:19:31;;;;;;;1.83;0.83;;;;;;;;;;5053898;28;20205;-77
2022/07/31 12:22:17;;;;;;;1.67;0.60;;;;;;;;;;5071935;28;20265;-78
2022/07/31 12:24:44;;;;;;;1.33;0.63;;;;;;;;;;5053797;28;20653;-76
2022/07/31 12:27:15;;;;;;;2.37;0.77;;;;;;;;;;5072486;28;20194;-77
2022/07/31 12:30:16;;;;;;;1.53;0.60;;;;;;;;;;5073153;28;20271;-77
2022/07/31 12:33:03;;;;;;;1.87;0.87;;;;;;;;;;5091796;28;20170;-78
2022/07/31 12:35:41;;;;;;;1.37;0.60;;;;;;;;;;5074131;28;20185;-77
2022/07/31 12:38:26;;;;;;;1.07;0.70;;;;;;;;;;5075874;28;20209;-77
2022/07/31 12:41:13;;;;;;;2.40;0.63;;;;;;;;;;5060015;28;20201;-77
2022/07/31 12:44:10;;;;;;;1.97;0.70;;;;;;;;;;5076285;28;20176;-77
2022/07/31 12:47:00;;;;;;;2.30;0.70;;;;;;;;;;5074336;28;20221;-77
2022/07/31 12:49:44;;;;;;;1.13;0.70;;;;;;;;;;5091567;28;20216;-77
2022/07/31 12:52:11;;;;;;;1.07;0.60;;;;;;;;;;5056574;28;20590;-77
2022/07/31 12:54:57;;;;;;;1.80;0.50;;;;;;;;;;5090872;28;20300;-77
2022/07/31 12:57:24;;;;;;;1.87;0.93;;;;;;;;;;5090845;28;20267;-77
2022/07/31 12:59:52;;;;;;;1.87;0.77;;;;;;;;;;5090172;28;20212;-77
2022/07/31 13:02:19;;;;;;;2.03;0.80;;;;;;;;;;5091238;28;20212;-77
2022/07/31 13:04:47;;;;;;;1.40;0.80;;;;;;;;;;5091137;28;20185;-77
2022/07/31 13:07:17;;;;;;;0.87;0.63;;;;;;;;;;5091242;28;20403;-77
2022/07/31 13:09:45;;;;;;;0.97;0.60;;;;;;;;;;5073433;28;20272;-77
2022/07/31 13:12:33;;;;;;;0.90;0.60;;;;;;;;;;5091332;28;20197;-77
2022/07/31 13:15:00;;;;;;;2.23;0.77;;;;;;;;;;5091080;28;20669;-78
2022/07/31 13:17:47;;;;;;;2.47;0.63;;;;;;;;;;5090940;28;20284;-77
2022/07/31 13:20:16;;;;;;;1.67;0.90;;;;;;;;;;5073403;28;20633;-77
2022/07/31 13:22:43;;;;;;;1.53;0.90;;;;;;;;;;5090890;28;20239;-77
2022/07/31 13:25:10;;;;;;;2.03;0.70;;;;;;;;;;5088754;28;20189;-77
2022/07/31 13:27:38;;;;;;;3.00;0.97;;;;;;;;;;5070230;28;20206;-77
2022/07/31 13:30:07;;;;;;;1.77;0.77;;;;;;;;;;5070332;28;20207;-77
2022/07/31 13:32:34;;;;;;;1.83;0.80;;;;;;;;;;5070664;28;20196;-77
2022/07/31 13:35:20;;;;;;;2.10;0.63;;;;;;;;;;5070495;28;20170;-77
2022/07/31 13:37:55;;;;;;;3.30;0.80;;;;;;;;;;5054096;28;20383;-77
2022/07/31 13:41:19;;;;;;;1.10;0.70;;;;;;;;;;5069757;28;20530;-77
2022/07/31 13:43:09;;;;;;;0.93;0.50;;;;;;;;;;5052477;28;20276;-77
2022/07/31 13:45:54;;;;;;;1.87;0.63;;;;;;;;;;5070348;28;20173;-77
2022/07/31 13:48:21;;;;;;;2.30;0.70;;;;;;;;;;5070095;28;20233;-77
2022/07/31 13:50:48;;;;;;;2.37;0.73;;;;;;;;;;5035571;28;20217;-77
2022/07/31 13:53:14;;;;;;;1.00;0.73;;;;;;;;;;5070256;28;20580;-77
2022/07/31 13:55:41;;;;;;;2.13;0.70;;;;;;;;;;5070094;28;20242;-77
2022/07/31 13:58:26;;;;;;;1.43;0.70;;;;;;;;;;5052019;28;20191;-76
2022/07/31 14:00:55;;;;;;;2.30;0.60;;;;;;;;;;5070142;28;20243;-77
2022/07/31 14:03:41;;;;;;;1.10;0.70;;;;;;;;;;5054891;28;20174;-77
2022/07/31 14:06:07;;;;;;;3.03;0.70;;;;;;;;;;5070094;28;20198;-77
2022/07/31 14:08:35;;;;;;;3.03;0.90;;;;;;;;;;5035278;28;20596;-78
2022/07/31 14:11:16;;;;;;;3.20;1.00;;;;;;;;;;5054433;28;20214;-77
2022/07/31 14:13:42;;;;;;;1.30;0.60;;;;;;;;;;5069861;28;20178;-77
2022/07/31 14:16:09;;;;;;;2.30;0.70;;;;;;;;;;5052280;28;20580;-77
2022/07/31 14:18:36;;;;;;;1.97;0.80;;;;;;;;;;5069643;28;20211;-77
2022/07/31 14:21:08;;;;;;;2.90;0.77;;;;;;;;;;5052040;28;20211;-77
2022/07/31 14:23:36;;;;;;;2.40;0.70;;;;;;;;;;5069797;28;20198;-77
2022/07/31 14:26:06;;;;;;;2.30;0.70;;;;;;;;;;5079943;28;20206;-77
2022/07/31 14:28:34;;;;;;;1.87;0.70;;;;;;;;;;5089834;28;20204;-77
2022/07/31 14:31:02;;;;;;;2.33;0.73;;;;;;;;;;5072413;28;20170;-77
2022/07/31 14:33:46;;;;;;;2.40;0.90;;;;;;;;;;5090024;28;20172;-77
2022/07/31 14:36:13;;;;;;;2.30;0.80;;;;;;;;;;5038744;28;20683;-77
2022/07/31 14:38:57;;;;;;;2.67;0.87;;;;;;;;;;5074538;28;20230;-77
2022/07/31 14:41:24;;;;;;;3.80;0.90;;;;;;;;;;5071923;28;20609;-77
2022/07/31 14:44:18;;;;;;;1.40;0.70;;;;;;;;;;5090034;28;20533;-78
2022/07/31 14:46:54;;;;;;;1.33;0.80;;;;;;;;;;5089705;28;20193;-78
2022/07/31 14:49:38;;;;;;;1.70;0.80;;;;;;;;;;5089667;28;20215;-78
2022/07/31 14:52:27;;;;;;;1.17;0.70;;;;;;;;;;5078820;28;20185;-77
2022/07/31 14:54:54;;;;;;;2.93;0.70;;;;;;;;;;5093664;28;20626;-77
2022/07/31 14:57:21;;;;;;;3.17;0.97;;;;;;;;;;5093406;28;20267;-76
2022/07/31 14:59:50;;;;;;;1.07;0.60;;;;;;;;;;5093636;28;20193;-77
2022/07/31 15:02:18;;;;;;;1.40;0.70;;;;;;;;;;5093337;28;20246;-77
2022/07/31 15:04:49;;;;;;;2.93;0.67;;;;;;;;;;5093764;28;20648;-77
2022/07/31 15:07:16;;;;;;;3.00;0.77;;;;;;;;;;5075085;28;20224;-76
2022/07/31 15:10:03;;;;;;;2.17;0.90;;;;;;;;;;5063988;28;20587;-76
2022/07/31 15:12:32;;;;;;;2.67;1.00;;;;;;;;;;5075252;28;20567;-77
2022/07/31 15:15:00;;;;;;;1.73;0.70;;;;;;;;;;5075579;28;20211;-76
2022/07/31 15:17:27;;;;;;;3.07;0.87;;;;;;;;;;5093137;28;20181;-77
2022/07/31 15:19:54;;;;;;;1.97;0.70;;;;;;;;;;5075298;28;20202;-76
2022/07/31 15:22:20;;;;;;;2.67;0.80;;;;;;;;;;5093122;28;20550;-77
2022/07/31 15:24:51;;;;;;;2.93;0.70;;;;;;;;;;5093212;28;20171;-78
2022/07/31 15:27:23;;;;;;;1.23;0.60;;;;;;;;;;5055077;28;20218;-77
2022/07/31 15:29:51;;;;;;;0.87;0.70;;;;;;;;;;5072910;28;20189;-77
2022/07/31 15:32:34;;;;;;;2.97;0.70;;;;;;;;;;5072540;28;20575;-77